createdAt,value
2018-03-21T00:01:25.882Z,1.31
2018-03-21T00:07:16.589Z,1.58
2018-03-21T00:13:07.256Z,1.4
2018-03-21T00:18:58.004Z,1.39
2018-03-21T00:24:48.652Z,1.27
2018-03-21T00:30:39.333Z,1.47
2018-03-21T00:36:30.081Z,1.22
2018-03-21T00:42:20.822Z,1.38
2018-03-21T00:48:11.406Z,1.89
2018-03-21T00:54:02.175Z,2.41
2018-03-21T00:59:52.876Z,2.65
2018-03-21T01:05:43.462Z,3.25
2018-03-21T01:11:34.173Z,3.45
2018-03-21T01:17:24.916Z,3.26
2018-03-21T01:23:15.570Z,3.92
2018-03-21T01:29:06.309Z,3.78
2018-03-21T01:34:56.986Z,4.17
2018-03-21T01:40:47.621Z,3.65
2018-03-21T01:46:38.339Z,3.77
2018-03-21T01:52:29.022Z,4.23
2018-03-21T01:58:19.715Z,4.67
2018-03-21T02:04:10.437Z,3.92
2018-03-21T02:10:01.098Z,4.29
2018-03-21T02:15:51.771Z,4.67
2018-03-21T02:21:42.448Z,4.1
2018-03-21T02:27:33.153Z,4.32
2018-03-21T02:33:23.838Z,4.14
2018-03-21T02:39:14.518Z,4.16
2018-03-21T02:45:05.286Z,3.64
2018-03-21T02:50:55.895Z,3.47
2018-03-21T02:56:46.598Z,3.89
2018-03-21T03:02:37.302Z,4.26
2018-03-21T03:08:28.000Z,4.15
2018-03-21T03:14:18.649Z,5.39
2018-03-21T03:20:09.340Z,6.73
2018-03-21T03:26:00.023Z,5.13
2018-03-21T03:31:50.782Z,5.1
2018-03-21T03:37:41.420Z,7.03
2018-03-21T03:43:32.133Z,7.47
2018-03-21T03:49:22.796Z,6.99
2018-03-21T03:55:13.501Z,8.57
2018-03-21T04:01:04.179Z,8.98
2018-03-21T04:06:54.859Z,8.54
2018-03-21T04:12:45.542Z,8.63
2018-03-21T04:18:36.243Z,7.58
2018-03-21T04:24:26.976Z,9.22
2018-03-21T04:30:17.636Z,9.07
2018-03-21T04:36:08.342Z,9.52
2018-03-21T04:41:59.043Z,8.03
2018-03-21T04:47:49.682Z,8.7
2018-03-21T04:53:40.378Z,8.04
2018-03-21T04:59:31.081Z,8.86
2018-03-21T05:05:21.767Z,7.04
2018-03-21T05:11:12.499Z,6.22
2018-03-21T05:17:03.172Z,6.29
2018-03-21T05:22:53.844Z,5.46
2018-03-21T05:28:44.541Z,5.84
2018-03-21T05:34:35.265Z,5.97
2018-03-21T05:40:25.950Z,6.75
2018-03-21T05:46:16.600Z,5.35
2018-03-21T05:52:07.304Z,5.26
2018-03-21T05:57:58.054Z,5.3
2018-03-21T06:03:48.703Z,5.45
2018-03-21T06:09:39.335Z,5.75
2018-03-21T06:15:30.095Z,6.62
2018-03-21T06:21:20.773Z,5.51
2018-03-21T06:27:11.455Z,6.32
2018-03-21T06:33:02.170Z,5.95
2018-03-21T06:38:52.808Z,6.94
2018-03-21T06:44:43.573Z,6.9
2018-03-21T06:50:34.221Z,7.22
2018-03-21T06:56:24.948Z,6.18
2018-03-21T07:02:15.558Z,6.28
2018-03-21T07:08:06.311Z,5.47
2018-03-21T07:13:56.961Z,6.83
2018-03-21T07:19:47.631Z,5.9
2018-03-21T07:25:38.332Z,6.03
2018-03-21T07:31:29.015Z,6.61
2018-03-21T07:37:19.727Z,5.63
2018-03-21T07:43:10.373Z,6.05
2018-03-21T07:49:01.083Z,5.21
2018-03-21T07:54:51.765Z,5.45
2018-03-21T08:00:42.443Z,4.31
2018-03-21T08:06:33.148Z,5.99
2018-03-21T08:12:23.827Z,5.14
2018-03-21T08:18:14.530Z,5.8
2018-03-21T08:24:05.222Z,5.72
2018-03-21T08:29:55.891Z,5.54
2018-03-21T08:35:46.558Z,5.89
2018-03-21T08:41:37.280Z,5.7
2018-03-21T08:47:27.966Z,5.69
2018-03-21T08:53:18.744Z,5.44
2018-03-21T08:59:09.341Z,5.16
2018-03-21T09:05:00.136Z,4.48
2018-03-21T09:10:50.768Z,4.27
2018-03-21T09:16:41.413Z,3.49
2018-03-21T09:22:32.107Z,4.27
2018-03-21T09:28:22.805Z,4.7
2018-03-21T09:34:13.506Z,4.7
2018-03-21T09:40:04.223Z,4.94
2018-03-21T09:45:54.909Z,5.47
2018-03-21T09:51:45.594Z,5.46
2018-03-21T09:57:36.323Z,5.34
2018-03-21T10:03:26.962Z,5.16
2018-03-21T10:09:17.671Z,3.7
2018-03-21T10:15:08.353Z,5.7
2018-03-21T10:20:59.075Z,4.94
2018-03-21T10:26:49.763Z,4.94
2018-03-21T10:32:40.465Z,5.4
2018-03-21T10:38:31.152Z,5.16
2018-03-21T10:44:21.885Z,5.62
2018-03-21T10:50:12.567Z,5.36
2018-03-21T10:56:03.304Z,6.38
2018-03-21T11:01:53.935Z,7.66
2018-03-21T11:07:44.639Z,6.66
2018-03-21T11:13:35.450Z,7.25
2018-03-21T11:19:26.039Z,6.67
2018-03-21T11:25:16.791Z,7.04
2018-03-21T11:31:07.487Z,6.77
2018-03-21T11:36:58.239Z,7.39
2018-03-21T11:42:48.879Z,8.9
2018-03-21T11:48:39.544Z,7.82
2018-03-21T11:54:30.261Z,7.6
2018-03-21T12:00:20.953Z,7.18
2018-03-21T12:06:11.664Z,6.31
2018-03-21T12:12:02.357Z,7.01
2018-03-21T12:17:53.084Z,7.5
2018-03-21T12:23:43.762Z,7.82
2018-03-21T12:29:34.492Z,7.94
2018-03-21T12:35:25.196Z,8.17
2018-03-21T12:41:15.916Z,8.1
2018-03-21T12:47:06.602Z,7.3
2018-03-21T12:52:57.359Z,6.7
2018-03-21T12:58:48.071Z,6.92
2018-03-21T13:04:38.728Z,7.8
2018-03-21T13:10:29.498Z,7.53
2018-03-21T13:16:20.181Z,5.75
2018-03-21T13:22:10.876Z,8.4
2018-03-21T13:28:01.587Z,8.34
2018-03-21T13:33:52.305Z,8.19
2018-03-21T13:39:43.024Z,6.62
2018-03-21T13:45:33.765Z,7.62
2018-03-21T13:51:24.456Z,7.61
2018-03-21T13:57:15.189Z,8.01
2018-03-21T14:03:05.884Z,7.13
2018-03-21T14:08:56.616Z,7.94
2018-03-21T14:14:47.314Z,6.86
2018-03-21T14:20:38.034Z,7.51
2018-03-21T14:26:28.775Z,6.87
2018-03-21T14:32:19.496Z,6.64
2018-03-21T14:38:10.292Z,6.51
2018-03-21T14:44:00.963Z,5.97
2018-03-21T14:49:51.655Z,7.52
2018-03-21T14:55:42.397Z,5.89
2018-03-21T15:01:33.113Z,6.46
2018-03-21T15:07:23.820Z,6.68
2018-03-21T15:13:14.556Z,6.34
2018-03-21T15:19:05.294Z,6.53
2018-03-21T15:24:56.013Z,5.47
2018-03-21T15:30:46.752Z,6.01
2018-03-21T15:36:37.467Z,5.71
2018-03-21T15:42:28.221Z,6.55
2018-03-21T15:48:19.043Z,7.22
2018-03-21T15:54:09.638Z,6.28
2018-03-21T16:00:00.394Z,5.54
2018-03-21T16:05:51.081Z,6.32
2018-03-21T16:11:41.868Z,6.12
2018-03-21T16:17:32.516Z,6.35
2018-03-21T16:23:23.228Z,6.38
2018-03-21T16:29:13.980Z,5.81
2018-03-21T16:35:04.649Z,6.19
2018-03-21T16:40:55.374Z,6.55
2018-03-21T16:46:46.100Z,6.12
2018-03-21T16:52:36.809Z,6.39
2018-03-21T16:58:27.488Z,5.16
2018-03-21T17:04:18.201Z,6.97
2018-03-21T17:10:08.932Z,6.36
2018-03-21T17:15:59.637Z,6.11
2018-03-21T17:21:50.327Z,6.12
2018-03-21T17:27:41.005Z,6.15
2018-03-21T17:33:31.702Z,7.02
2018-03-21T17:39:22.429Z,6.6
2018-03-21T17:45:13.108Z,6.73
2018-03-21T17:51:03.852Z,6.15
2018-03-21T17:56:54.541Z,7.38
2018-03-21T18:02:45.244Z,6.41
2018-03-21T18:08:35.942Z,7.46
2018-03-21T18:14:26.661Z,6.13
2018-03-21T18:20:17.360Z,6.56
2018-03-21T18:26:08.019Z,7.29
2018-03-21T18:31:58.749Z,6.66
2018-03-21T18:37:49.479Z,7.46
2018-03-21T18:43:40.142Z,7.53
2018-03-21T18:49:30.847Z,7.31
2018-03-21T18:55:21.572Z,7.29
2018-03-21T19:01:12.248Z,7.03
2018-03-21T19:07:02.980Z,7.64
2018-03-21T19:12:53.657Z,6.48
2018-03-21T19:18:44.334Z,5.22
2018-03-21T19:24:35.030Z,7.43
2018-03-21T19:30:25.708Z,7.47
2018-03-21T19:36:16.405Z,7.32
2018-03-21T19:42:07.081Z,6.55
2018-03-21T19:47:57.808Z,7.1
2018-03-21T19:53:48.502Z,6.29
2018-03-21T19:59:39.157Z,6.36
2018-03-21T20:05:29.959Z,6.54
2018-03-21T20:11:20.569Z,6.31
2018-03-21T20:17:11.238Z,6.51
2018-03-21T20:23:01.942Z,6.68
2018-03-21T20:28:52.615Z,6.88
2018-03-21T20:34:43.341Z,7.91
2018-03-21T20:40:34.012Z,6.95
2018-03-21T20:46:24.786Z,6.68
2018-03-21T20:52:15.402Z,7.1
2018-03-21T20:58:06.102Z,7.5
2018-03-21T21:03:56.761Z,6.33
2018-03-21T21:09:47.483Z,7.39
2018-03-21T21:15:38.168Z,6.53
2018-03-21T21:21:28.945Z,8.48
2018-03-21T21:27:19.565Z,7.26
2018-03-21T21:33:10.228Z,7.73
2018-03-21T21:39:00.939Z,7.61
2018-03-21T21:44:51.621Z,7.1
2018-03-21T21:50:42.285Z,8.21
2018-03-21T21:56:33.010Z,8.57
2018-03-21T22:02:23.687Z,7.59
2018-03-21T22:08:14.371Z,7.44
2018-03-21T22:14:05.048Z,8.23
2018-03-21T22:19:55.760Z,8.28
2018-03-21T22:25:46.460Z,8.19
2018-03-21T22:31:37.148Z,7.85
2018-03-21T22:37:27.820Z,8.77
2018-03-21T22:43:18.506Z,9.06
2018-03-21T22:49:09.240Z,7.59
2018-03-21T22:54:59.961Z,8.25
2018-03-21T23:00:50.652Z,7.51
2018-03-21T23:06:41.286Z,8.13
2018-03-21T23:12:31.974Z,7.66
2018-03-21T23:18:22.698Z,8.04
2018-03-21T23:24:13.353Z,7.43
2018-03-21T23:30:04.024Z,7.28
2018-03-21T23:35:54.710Z,7.88
2018-03-21T23:41:45.430Z,7.88
2018-03-21T23:47:36.106Z,6.87
2018-03-21T23:53:26.806Z,8.11
2018-03-21T23:59:17.459Z,7.01
